adsglobe.com alexa rank chart, adsglobe.com alexa rank daily changes

adsglobe.com alexa rank chart, adsglobe.com alexa rank daily changes

adsglobe.com
Actual rank:
276 260

RANK HISTORY

Date Rank Diff
2018/04/19 276 260 -290 502
2018/04/17 566 762 -348 426
2018/04/15 915 188 +569 155
2018/04/13 346 033 +121 501
2018/04/12 224 532 -91 618
2018/04/11 316 150 +46 724
2018/04/08 269 426 -203 453
2018/04/07 472 879 -20 978
2018/04/06 493 857 -89 578
2018/04/04 583 435 -221 278
2018/04/01 804 713 +546 357
2018/03/31 258 356 +57 857
2018/03/30 200 499 -540 894
2018/03/29 741 393 +424 653
2018/03/28 316 740 +1 064
2018/03/27 315 676 -57 371
2018/03/25 373 047 -484 838
2018/03/24 857 885 +380 108
2018/03/23 477 777 +229 876
2018/03/22 247 901 -176 729
2018/03/18 424 630 +141 757
2018/03/17 282 873 -161 584
2018/03/16 444 457 +180 673
2018/03/15 263 784 -33 314
2018/03/14 297 098 -81 064
2018/03/13 378 162 +55 565
2018/03/12 322 597 -102 887
2018/03/11 425 484 +151 483
2018/03/10 274 001 +55 816
2018/03/09 218 185 -28 158
2018/03/08 246 343 -309 709
2018/03/07 556 052 -259 820
2018/03/05 815 872 +465 096
2018/03/04 350 776 -68 303
2018/03/03 419 079 +15 490
2018/03/02 403 589 +160 560
2018/03/01 243 029 -54 755
2018/02/28 297 784 -211 492
2018/02/26 509 276 +238 901
2018/02/25 270 375 -168 442
2018/02/24 438 817 +106 325
2018/02/23 332 492 +23 712
2018/02/22 308 780 -18 925
2018/02/21 327 705 +68 301
2018/02/20 259 404 -12 387
2018/02/18 271 791

WIDGET FOR YOUR SITE

DOMAINS WITH THE NEAREST RANK

Domain Rank
university-tour.com 276 255
stardewvalleywikithai.com 276 256
minutemediacdn.com 276 257
howtoexitthematrix.com 276 258
avtoliteratura.ru 276 259
adsglobe.com 276 260
youla.io 276 261
stats888.com 276 262
motionkinetic.net 276 263
advernesia.com 276 264
phone-validator.net 276 265

DOMAINS WITH THE NEAREST RANK BY TLD .com

Domain Rank
amplience.com 276 249
university-tour.com 276 255
stardewvalleywikithai.com 276 256
minutemediacdn.com 276 257
howtoexitthematrix.com 276 258
adsglobe.com 276 260
stats888.com 276 262
advernesia.com 276 264
dubsmash.com 276 267
turkishminute.com 276 268
ecampuz.com 276 270